createdAt,value
2022-10-01T00:01:13.233Z,90.04
2022-10-01T00:03:40.154Z,90.09
2022-10-01T00:06:13.585Z,89.94
2022-10-01T00:08:41.942Z,90.17
2022-10-01T00:11:12.114Z,89.69
2022-10-01T00:13:39.867Z,89.95
2022-10-01T00:16:08.964Z,90.16
2022-10-01T00:18:37.759Z,89.95
2022-10-01T00:21:07.345Z,90.17
2022-10-01T00:23:33.863Z,90.27
2022-10-01T00:26:14.902Z,90.33
2022-10-01T00:28:43.015Z,90.23
2022-10-01T00:31:10.290Z,90.39
2022-10-01T00:33:37.296Z,90.31
2022-10-01T00:36:05.414Z,90.56
2022-10-01T00:38:32.847Z,90.69
2022-10-01T00:40:59.904Z,90.78
2022-10-01T00:43:29.173Z,90.50
2022-10-01T00:46:01.860Z,90.86
2022-10-01T00:48:30.594Z,91.35
2022-10-01T00:50:58.168Z,91.14
2022-10-01T00:53:25.454Z,91.37
2022-10-01T00:55:58.353Z,91.46
2022-10-01T00:58:25.266Z,91.25
2022-10-01T01:00:55.166Z,91.37
2022-10-01T01:03:21.735Z,91.11
2022-10-01T01:05:50.333Z,91.27
2022-10-01T01:08:17.886Z,91.28
2022-10-01T01:10:54.941Z,90.98
2022-10-01T01:13:35.684Z,90.87
2022-10-01T01:16:11.945Z,91.17
2022-10-01T01:18:48.633Z,91.09
2022-10-01T01:21:30.073Z,91.43
2022-10-01T01:24:04.748Z,91.15
2022-10-01T01:26:54.752Z,91.36
2022-10-01T01:29:26.393Z,91.30
2022-10-01T01:31:58.477Z,91.36
2022-10-01T01:34:30.686Z,91.70
2022-10-01T01:37:02.360Z,91.28
2022-10-01T01:39:33.244Z,91.63
2022-10-01T01:42:06.881Z,91.51
2022-10-01T01:44:39.022Z,91.72
2022-10-01T01:47:10.528Z,91.66
2022-10-01T01:49:39.388Z,91.65
2022-10-01T01:52:13.335Z,92.06
2022-10-01T01:54:40.763Z,91.79
2022-10-01T01:57:08.866Z,91.98
2022-10-01T01:59:35.942Z,92.08
2022-10-01T02:02:07.027Z,92.21
2022-10-01T02:04:41.125Z,92.14
2022-10-01T02:07:30.691Z,92.33
2022-10-01T02:10:17.013Z,92.58
2022-10-01T02:13:25.462Z,92.73
2022-10-01T02:16:04.462Z,92.52
2022-10-01T02:18:36.251Z,92.50
2022-10-01T02:21:19.956Z,92.70
2022-10-01T02:23:58.093Z,92.77
2022-10-01T02:26:28.366Z,93.15
2022-10-01T02:28:59.479Z,92.90
2022-10-01T02:31:29.202Z,93.46
2022-10-01T02:33:58.327Z,93.41
2022-10-01T02:36:27.976Z,93.30
2022-10-01T02:38:55.981Z,93.18
2022-10-01T02:41:33.976Z,93.25
2022-10-01T02:44:11.024Z,93.41
2022-10-01T02:46:45.330Z,93.55
2022-10-01T02:49:13.376Z,93.55
2022-10-01T02:51:53.572Z,93.56
2022-10-01T02:54:27.033Z,93.65
2022-10-01T02:57:11.968Z,93.93
2022-10-01T02:59:38.434Z,93.70
2022-10-01T03:02:05.044Z,93.65
2022-10-01T03:04:32.120Z,93.76
2022-10-01T03:07:03.585Z,93.78
2022-10-01T03:09:31.958Z,94.24
2022-10-01T03:11:59.785Z,94.12
2022-10-01T03:14:26.560Z,94.00
2022-10-01T03:16:56.115Z,94.09
2022-10-01T03:19:22.913Z,94.21
2022-10-01T03:21:49.388Z,94.00
2022-10-01T03:24:38.269Z,94.21
2022-10-01T03:27:07.294Z,94.16
2022-10-01T03:29:35.031Z,94.30
2022-10-01T03:32:01.733Z,94.25
2022-10-01T03:34:35.774Z,94.43
2022-10-01T03:37:05.488Z,94.58
2022-10-01T03:39:32.232Z,94.40
2022-10-01T03:41:58.861Z,94.69
2022-10-01T03:44:25.515Z,94.66
2022-10-01T03:46:52.072Z,94.59
2022-10-01T03:52:08.909Z,95.17
2022-10-01T03:55:01.633Z,95.12
2022-10-01T03:57:30.831Z,94.97
2022-10-01T04:00:00.043Z,95.08
2022-10-01T04:02:54.752Z,95.02
2022-10-01T04:05:22.769Z,95.09
2022-10-01T04:10:36.380Z,95.27
2022-10-01T04:13:03.357Z,95.23
2022-10-01T04:15:30.262Z,95.11
2022-10-01T04:17:59.854Z,95.04
2022-10-01T04:20:27.924Z,95.05
2022-10-01T04:22:54.621Z,95.12
2022-10-01T04:25:21.212Z,95.19
2022-10-01T04:28:00.877Z,95.42
2022-10-01T04:30:29.861Z,95.55
2022-10-01T04:32:56.410Z,95.32
2022-10-01T04:35:28.562Z,95.43
2022-10-01T04:38:04.095Z,95.59
2022-10-01T04:40:34.513Z,95.64
2022-10-01T04:43:04.593Z,95.35
2022-10-01T04:45:32.248Z,95.77
2022-10-01T04:47:59.591Z,95.84
2022-10-01T04:50:27.464Z,95.52
2022-10-01T04:52:55.369Z,95.64
2022-10-01T04:55:41.935Z,95.62
2022-10-01T04:58:12.553Z,95.67
2022-10-01T05:00:39.085Z,95.84
2022-10-01T05:03:06.158Z,96.17
2022-10-01T05:05:35.064Z,95.91
2022-10-01T05:08:05.530Z,96.29
2022-10-01T05:10:32.320Z,95.86
2022-10-01T05:13:01.563Z,96.04
2022-10-01T05:15:30.724Z,96.00
2022-10-01T05:18:02.805Z,96.31
2022-10-01T05:20:29.686Z,96.44
2022-10-01T05:22:58.578Z,96.08
2022-10-01T05:25:25.198Z,96.23
2022-10-01T05:27:52.998Z,96.18
2022-10-01T05:30:24.458Z,96.61
2022-10-01T05:32:56.395Z,96.55
2022-10-01T05:35:23.058Z,96.36
2022-10-01T05:37:53.313Z,96.54
2022-10-01T05:40:23.005Z,96.64
2022-10-01T05:42:49.665Z,96.46
2022-10-01T05:47:58.602Z,96.51
2022-10-01T05:50:27.209Z,96.58
2022-10-01T05:52:54.771Z,96.28
2022-10-01T05:55:22.197Z,96.45
2022-10-01T05:57:56.299Z,96.41
2022-10-01T06:00:23.044Z,96.32
2022-10-01T06:02:52.429Z,96.37
2022-10-01T06:05:20.071Z,96.42
2022-10-01T06:07:47.301Z,96.38
2022-10-01T06:10:13.908Z,96.34
2022-10-01T06:12:40.639Z,96.63
2022-10-01T06:15:07.803Z,96.52
2022-10-01T06:17:34.350Z,96.61
2022-10-01T06:20:01.221Z,96.30
2022-10-01T06:22:29.918Z,96.10
2022-10-01T06:24:56.843Z,96.51
2022-10-01T06:27:23.379Z,96.26
2022-10-01T06:29:49.828Z,96.14
2022-10-01T06:32:19.758Z,96.40
2022-10-01T06:34:46.268Z,96.42
2022-10-01T06:37:12.861Z,96.52
2022-10-01T06:39:39.498Z,96.02
2022-10-01T06:42:24.584Z,96.19
2022-10-01T06:44:51.150Z,96.19
2022-10-01T06:47:17.901Z,96.01
2022-10-01T06:49:47.478Z,96.20
2022-10-01T06:52:44.135Z,96.15
2022-10-01T06:55:15.689Z,96.47
2022-10-01T06:57:43.237Z,96.44
2022-10-01T07:00:10.514Z,96.27
2022-10-01T07:06:22.360Z,96.50
2022-10-01T07:08:22.482Z,96.44
2022-10-01T07:13:31.654Z,96.54
2022-10-01T07:15:58.254Z,96.63
2022-10-01T07:18:26.147Z,96.83
2022-10-01T07:20:52.779Z,97.17
2022-10-01T07:23:25.823Z,97.13
2022-10-01T07:28:35.734Z,97.13
2022-10-01T07:31:07.249Z,97.28
2022-10-01T07:33:35.183Z,97.11
2022-10-01T07:36:04.726Z,97.22
2022-10-01T07:38:33.445Z,97.21
2022-10-01T07:41:02.558Z,97.32
2022-10-01T07:43:31.123Z,97.25
2022-10-01T07:45:58.393Z,97.30
2022-10-01T07:48:25.842Z,97.26
2022-10-01T07:50:52.963Z,97.52
2022-10-01T07:53:19.738Z,97.19
2022-10-01T07:55:46.222Z,97.19
2022-10-01T07:58:13.108Z,97.60
2022-10-01T08:00:40.039Z,97.44
2022-10-01T08:03:06.605Z,97.33
2022-10-01T08:05:35.852Z,97.17
2022-10-01T08:08:05.484Z,97.50
2022-10-01T08:10:35.419Z,97.53
2022-10-01T08:13:12.629Z,97.18
2022-10-01T08:15:39.176Z,97.11
2022-10-01T08:18:06.048Z,97.33
2022-10-01T08:20:32.536Z,97.25
2022-10-01T08:23:03.621Z,97.34
2022-10-01T08:25:30.330Z,97.29
2022-10-01T08:27:57.472Z,97.51
2022-10-01T08:30:24.493Z,97.53
2022-10-01T08:32:54.899Z,97.48
2022-10-01T08:35:22.163Z,97.52
2022-10-01T08:37:48.902Z,97.37
2022-10-01T08:40:16.016Z,97.48
2022-10-01T08:42:54.074Z,97.42
2022-10-01T08:45:26.174Z,97.52
2022-10-01T08:48:02.275Z,97.30
2022-10-01T08:50:32.262Z,97.75
2022-10-01T08:53:07.610Z,97.64
2022-10-01T08:55:37.495Z,97.37
2022-10-01T08:58:24.064Z,97.33
2022-10-01T09:00:55.586Z,96.98
2022-10-01T09:03:29.531Z,97.19
2022-10-01T09:06:11.348Z,97.20
2022-10-01T09:08:53.598Z,96.96
2022-10-01T09:11:34.361Z,97.05
2022-10-01T09:14:11.806Z,96.96
2022-10-01T09:16:55.877Z,97.33
2022-10-01T09:19:33.562Z,97.15
2022-10-01T09:22:06.051Z,96.80
2022-10-01T09:24:55.195Z,96.78
2022-10-01T09:27:27.641Z,96.92
2022-10-01T09:30:01.607Z,96.69
2022-10-01T09:32:35.463Z,96.78
2022-10-01T09:35:11.906Z,95.91
2022-10-01T09:37:53.654Z,95.56
2022-10-01T09:40:45.363Z,95.57
2022-10-01T09:43:12.624Z,95.78
2022-10-01T09:45:39.418Z,95.17
2022-10-01T09:48:26.780Z,95.40
2022-10-01T09:51:02.026Z,94.71
2022-10-01T09:53:36.914Z,93.28
2022-10-01T09:56:10.723Z,91.56
2022-10-01T09:58:44.723Z,91.76
2022-10-01T10:01:21.019Z,89.70
2022-10-01T10:03:58.110Z,89.29
2022-10-01T10:06:28.551Z,88.98
2022-10-01T10:08:58.210Z,89.80
2022-10-01T10:11:28.575Z,89.69
2022-10-01T10:14:00.286Z,90.31
2022-10-01T10:16:30.923Z,90.58
2022-10-01T10:19:15.696Z,91.04
2022-10-01T10:21:52.401Z,91.88
2022-10-01T10:24:26.523Z,92.06
2022-10-01T10:26:58.628Z,91.39
2022-10-01T10:32:37.128Z,90.49
2022-10-01T10:35:10.304Z,90.26
2022-10-01T10:37:56.022Z,89.43
2022-10-01T10:41:07.734Z,88.52
2022-10-01T10:46:33.766Z,87.51
2022-10-01T10:49:39.717Z,87.12
2022-10-01T10:53:20.285Z,87.02
2022-10-01T10:55:26.155Z,85.99
2022-10-01T10:58:14.515Z,85.21
2022-10-01T11:03:55.491Z,81.81
2022-10-01T11:06:25.403Z,80.68
2022-10-01T11:09:01.935Z,81.59
2022-10-01T11:15:16.466Z,80.76
2022-10-01T11:18:19.368Z,80.76
2022-10-01T11:31:30.557Z,78.66
2022-10-01T11:34:14.132Z,77.47
2022-10-01T11:37:05.589Z,78.31
2022-10-01T11:39:35.444Z,77.77
2022-10-01T11:42:07.991Z,78.37
2022-10-01T11:44:46.775Z,77.00
2022-10-01T11:47:21.207Z,77.30
2022-10-01T11:50:11.364Z,76.60
2022-10-01T11:52:42.077Z,76.92
2022-10-01T11:55:42.768Z,76.79
2022-10-01T11:58:55.801Z,77.39
2022-10-01T12:01:29.217Z,77.28
2022-10-01T12:04:04.053Z,76.17
2022-10-01T12:06:38.200Z,75.84
2022-10-01T12:09:14.421Z,77.17
2022-10-01T12:11:51.004Z,75.46
2022-10-01T12:14:24.637Z,75.60
2022-10-01T12:17:00.101Z,75.69
2022-10-01T12:19:33.555Z,75.59
2022-10-01T12:22:20.305Z,76.62
2022-10-01T12:24:58.182Z,75.93
2022-10-01T12:28:04.296Z,76.90
2022-10-01T12:30:54.458Z,75.84
2022-10-01T12:34:06.185Z,75.40
2022-10-01T12:36:45.581Z,73.23
2022-10-01T12:42:31.248Z,73.38
2022-10-01T12:45:32.776Z,73.91
2022-10-01T12:48:17.985Z,73.46
2022-10-01T12:50:56.413Z,73.64
2022-10-01T12:53:44.621Z,73.67
2022-10-01T12:56:24.840Z,72.75
2022-10-01T12:59:06.507Z,72.45
2022-10-01T13:01:43.763Z,71.12
2022-10-01T13:04:32.143Z,70.70
2022-10-01T13:07:13.307Z,71.15
2022-10-01T13:09:56.145Z,71.27
2022-10-01T13:13:01.300Z,72.29
2022-10-01T13:15:36.061Z,72.31
2022-10-01T13:18:26.077Z,71.75
2022-10-01T13:21:19.846Z,72.42
2022-10-01T13:23:55.477Z,72.48
2022-10-01T13:26:37.274Z,72.35
2022-10-01T13:29:14.467Z,72.51
2022-10-01T13:31:57.382Z,72.96
2022-10-01T13:34:32.074Z,73.03
2022-10-01T13:37:13.258Z,71.32
2022-10-01T13:39:42.187Z,72.11
2022-10-01T13:42:20.277Z,72.16
2022-10-01T13:44:53.239Z,71.92
2022-10-01T13:47:21.060Z,71.79
2022-10-01T13:49:58.455Z,72.38
2022-10-01T13:52:25.492Z,73.81
2022-10-01T13:54:58.059Z,74.07
2022-10-01T13:57:30.999Z,75.00
2022-10-01T13:59:59.815Z,72.20
2022-10-01T14:02:34.687Z,73.21
2022-10-01T14:05:23.135Z,74.07
2022-10-01T14:07:55.382Z,73.73
2022-10-01T14:10:25.883Z,72.16
2022-10-01T14:13:10.993Z,71.99
2022-10-01T14:15:59.922Z,71.77
2022-10-01T14:18:34.628Z,71.06
2022-10-01T14:21:20.698Z,71.45
2022-10-01T14:24:04.343Z,71.29
2022-10-01T14:29:42.265Z,71.37
2022-10-01T14:32:17.835Z,69.33
2022-10-01T14:34:59.091Z,69.81
2022-10-01T14:37:27.520Z,68.98
2022-10-01T14:40:17.259Z,70.89
2022-10-01T14:42:44.623Z,72.97
2022-10-01T14:45:16.627Z,73.67
2022-10-01T14:47:43.391Z,76.45
2022-10-01T14:50:12.988Z,77.05
2022-10-01T14:52:44.154Z,77.64
2022-10-01T14:55:36.758Z,78.05
2022-10-01T14:58:05.257Z,77.64
2022-10-01T15:00:33.332Z,78.44
2022-10-01T15:03:13.378Z,78.63
2022-10-01T15:05:40.057Z,79.00
2022-10-01T15:08:40.646Z,79.51
2022-10-01T15:11:44.616Z,81.30
2022-10-01T15:14:04.067Z,81.91
2022-10-01T15:16:33.354Z,81.72
2022-10-01T15:19:04.967Z,82.32
2022-10-01T15:21:37.718Z,82.36
2022-10-01T15:24:07.297Z,80.75
2022-10-01T15:26:34.370Z,80.55
2022-10-01T15:29:03.071Z,79.64
2022-10-01T15:31:30.357Z,80.04
2022-10-01T15:33:57.284Z,79.94
2022-10-01T15:36:23.879Z,80.07
2022-10-01T15:38:51.026Z,79.39
2022-10-01T15:41:31.871Z,79.10
2022-10-01T15:44:03.129Z,79.58
2022-10-01T15:46:33.397Z,78.90
2022-10-01T15:49:26.345Z,78.86
2022-10-01T15:52:16.506Z,78.66
2022-10-01T15:54:44.967Z,79.25
2022-10-01T15:57:20.764Z,78.72
2022-10-01T15:59:50.496Z,78.55
2022-10-01T16:02:25.228Z,78.91
2022-10-01T16:04:56.896Z,79.27
2022-10-01T16:07:30.370Z,79.35
2022-10-01T16:10:00.011Z,80.30
2022-10-01T16:12:28.089Z,81.33
2022-10-01T16:15:01.100Z,81.59
2022-10-01T16:17:38.638Z,80.80
2022-10-01T16:20:14.124Z,81.34
2022-10-01T16:22:41.411Z,82.02
2022-10-01T16:25:17.087Z,82.06
2022-10-01T16:27:46.292Z,81.68
2022-10-01T16:30:20.621Z,81.30
2022-10-01T16:32:47.650Z,80.63
2022-10-01T16:35:25.091Z,80.57
2022-10-01T16:37:55.181Z,79.89
2022-10-01T16:40:31.693Z,80.46
2022-10-01T16:43:00.264Z,80.11
2022-10-01T16:45:32.692Z,80.04
2022-10-01T16:48:00.557Z,80.96
2022-10-01T16:50:27.275Z,80.33
2022-10-01T16:52:56.590Z,79.80
2022-10-01T16:55:25.991Z,80.47
2022-10-01T16:57:54.842Z,80.62
2022-10-01T17:00:23.931Z,79.74
2022-10-01T17:02:50.600Z,79.25
2022-10-01T17:05:20.211Z,79.24
2022-10-01T17:07:46.906Z,79.22
2022-10-01T17:10:14.359Z,79.81
2022-10-01T17:12:41.593Z,79.29
2022-10-01T17:15:13.127Z,79.98
2022-10-01T17:17:39.707Z,79.05
2022-10-01T17:20:06.431Z,80.14
2022-10-01T17:22:33.242Z,80.04
2022-10-01T17:24:59.849Z,79.89
2022-10-01T17:27:26.745Z,80.00
2022-10-01T17:29:54.287Z,79.50
2022-10-01T17:32:20.941Z,80.02
2022-10-01T17:34:47.786Z,80.10
2022-10-01T17:37:14.543Z,80.23
2022-10-01T17:39:43.015Z,80.07
2022-10-01T17:42:10.607Z,80.78
2022-10-01T17:44:37.130Z,80.50
2022-10-01T17:47:04.472Z,81.05
2022-10-01T17:49:30.984Z,81.12
2022-10-01T17:51:57.488Z,81.55
2022-10-01T17:54:24.417Z,82.19
2022-10-01T17:56:55.305Z,82.13
2022-10-01T17:59:22.202Z,82.12
2022-10-01T18:01:48.847Z,83.09
2022-10-01T18:04:15.506Z,83.15
2022-10-01T18:06:42.867Z,83.34
2022-10-01T18:09:09.613Z,83.63
2022-10-01T18:11:36.263Z,83.55
2022-10-01T18:14:02.747Z,83.59
2022-10-01T18:16:29.485Z,83.89
2022-10-01T18:19:52.320Z,84.02
2022-10-01T18:21:44.518Z,84.17
2022-10-01T18:24:11.122Z,84.33
2022-10-01T18:26:38.279Z,84.16
2022-10-01T18:29:05.143Z,84.28
2022-10-01T18:31:38.076Z,84.62
2022-10-01T18:34:15.049Z,84.48
2022-10-01T18:36:55.793Z,84.60
2022-10-01T18:39:31.537Z,85.27
2022-10-01T18:41:58.393Z,84.94
2022-10-01T18:44:25.279Z,85.31
2022-10-01T18:47:15.777Z,85.61
2022-10-01T18:49:49.395Z,85.97
2022-10-01T18:52:26.601Z,85.62
2022-10-01T18:54:58.344Z,85.79
2022-10-01T18:58:07.451Z,86.26
2022-10-01T19:00:48.941Z,86.29
2022-10-01T19:03:37.197Z,86.53
2022-10-01T19:06:17.753Z,86.68
2022-10-01T19:08:58.604Z,86.52
2022-10-01T19:11:51.862Z,86.58
2022-10-01T19:14:22.751Z,86.55
2022-10-01T19:17:09.264Z,87.00
2022-10-01T19:19:43.622Z,87.11
2022-10-01T19:22:22.514Z,87.04
2022-10-01T19:25:08.967Z,87.05
2022-10-01T19:27:52.435Z,87.02
2022-10-01T19:30:19.915Z,87.18
2022-10-01T19:32:55.941Z,87.40
2022-10-01T19:35:36.151Z,87.13
2022-10-01T19:38:06.073Z,87.54
2022-10-01T19:40:55.619Z,87.83
2022-10-01T19:43:32.709Z,87.48
2022-10-01T19:46:09.090Z,87.51
2022-10-01T19:49:00.661Z,87.53
2022-10-01T19:51:34.792Z,87.44
2022-10-01T19:54:02.665Z,87.59
2022-10-01T19:56:32.317Z,87.81
2022-10-01T19:59:10.783Z,87.23
2022-10-01T20:01:46.167Z,87.38
2022-10-01T20:04:21.908Z,87.50
2022-10-01T20:07:00.113Z,87.40
2022-10-01T20:09:36.969Z,87.35
2022-10-01T20:12:16.915Z,87.32
2022-10-01T20:15:06.950Z,87.41
2022-10-01T20:17:42.734Z,87.77
2022-10-01T20:20:21.110Z,87.48
2022-10-01T20:23:40.557Z,87.63
2022-10-01T20:26:29.778Z,87.56
2022-10-01T20:29:08.297Z,87.29
2022-10-01T20:31:51.966Z,87.32
2022-10-01T20:34:43.067Z,87.27
2022-10-01T20:37:43.277Z,87.35
2022-10-01T20:40:09.774Z,87.24
2022-10-01T20:43:01.772Z,87.33
2022-10-01T20:45:33.435Z,87.41
2022-10-01T20:53:39.065Z,87.20
2022-10-01T20:56:15.535Z,87.17
2022-10-01T20:58:49.854Z,87.26
2022-10-01T21:01:20.921Z,87.63
2022-10-01T21:04:01.512Z,87.65
2022-10-01T21:06:42.488Z,87.78
2022-10-01T21:09:18.084Z,87.73
2022-10-01T21:11:49.937Z,87.22
2022-10-01T21:14:25.463Z,87.76
2022-10-01T21:17:13.484Z,87.41
2022-10-01T21:19:49.258Z,87.84
2022-10-01T21:22:38.450Z,88.12
2022-10-01T21:25:18.506Z,87.93
2022-10-01T21:28:05.314Z,87.93
2022-10-01T21:30:48.739Z,88.08
2022-10-01T21:33:25.421Z,88.05
2022-10-01T21:36:01.414Z,88.00
2022-10-01T21:38:39.808Z,87.96
2022-10-01T21:41:19.068Z,88.79
2022-10-01T21:43:59.532Z,89.21
2022-10-01T21:46:51.443Z,88.35
2022-10-01T21:49:41.283Z,88.44
2022-10-01T21:52:28.291Z,88.17
2022-10-01T21:55:20.902Z,88.16
2022-10-01T21:57:54.551Z,89.00
2022-10-01T22:00:24.870Z,89.10
2022-10-01T22:02:58.641Z,89.53
2022-10-01T22:05:37.455Z,89.50
2022-10-01T22:08:03.999Z,89.86
2022-10-01T22:10:38.783Z,90.09
2022-10-01T22:13:14.770Z,90.17
2022-10-01T22:15:43.611Z,89.90
2022-10-01T22:18:29.755Z,90.58
2022-10-01T22:20:58.207Z,90.67
2022-10-01T22:23:29.491Z,91.53
2022-10-01T22:25:58.599Z,91.25
2022-10-01T22:28:38.859Z,91.67
2022-10-01T22:31:09.805Z,91.33
2022-10-01T22:33:41.705Z,91.49
2022-10-01T22:36:14.385Z,91.17
2022-10-01T22:38:46.837Z,91.81
2022-10-01T22:41:28.271Z,91.74
2022-10-01T22:43:55.126Z,92.78
2022-10-01T22:46:41.211Z,93.33
2022-10-01T22:49:39.108Z,93.91
2022-10-01T22:52:06.647Z,94.00
2022-10-01T22:55:02.094Z,94.04
2022-10-01T23:01:05.263Z,93.20
2022-10-01T23:03:45.994Z,92.98
2022-10-01T23:06:29.743Z,92.72
2022-10-01T23:09:14.477Z,92.98
2022-10-01T23:12:09.427Z,92.78
2022-10-01T23:15:19.253Z,92.96
2022-10-01T23:18:00.362Z,93.33
2022-10-01T23:20:57.248Z,93.19
2022-10-01T23:23:37.184Z,93.35
2022-10-01T23:26:16.226Z,93.74
2022-10-01T23:29:14.189Z,93.18
2022-10-01T23:31:54.167Z,93.75
2022-10-01T23:35:03.974Z,93.49
2022-10-01T23:37:52.584Z,93.84
2022-10-01T23:40:23.338Z,93.38
2022-10-01T23:42:58.529Z,93.37
2022-10-01T23:45:32.652Z,93.25
2022-10-01T23:48:08.591Z,92.94
2022-10-01T23:51:06.265Z,92.78
2022-10-01T23:53:44.245Z,92.67
2022-10-01T23:56:42.895Z,92.20
2022-10-01T23:59:17.937Z,92.27
